createdAt,value
2018-09-29T00:00:44.820Z,20.80
2018-09-29T00:03:12.113Z,20.80
2018-09-29T00:05:39.333Z,20.80
2018-09-29T00:08:06.535Z,20.80
2018-09-29T00:10:33.621Z,20.80
2018-09-29T00:13:00.706Z,20.80
2018-09-29T00:15:27.797Z,20.80
2018-09-29T00:17:54.870Z,20.80
2018-09-29T00:20:22.303Z,20.80
2018-09-29T00:22:49.382Z,20.80
2018-09-29T00:25:16.460Z,20.80
2018-09-29T00:27:43.538Z,20.80
2018-09-29T00:30:10.617Z,20.80
2018-09-29T00:32:37.718Z,20.80
2018-09-29T00:35:04.797Z,20.80
2018-09-29T00:37:31.869Z,20.80
2018-09-29T00:39:58.961Z,20.80
2018-09-29T00:42:26.041Z,20.80
2018-09-29T00:44:53.125Z,20.90
2018-09-29T00:47:20.201Z,20.90
2018-09-29T00:49:47.294Z,21.00
2018-09-29T00:52:14.379Z,21.00
2018-09-29T00:54:41.445Z,21.00
2018-09-29T00:57:08.781Z,21.00
2018-09-29T00:59:35.861Z,21.10
2018-09-29T01:02:02.943Z,21.10
2018-09-29T01:04:30.030Z,21.10
2018-09-29T01:06:57.128Z,21.20
2018-09-29T01:09:24.201Z,21.20
2018-09-29T01:11:51.281Z,21.30
2018-09-29T01:14:18.709Z,21.30
2018-09-29T01:16:45.806Z,21.30
2018-09-29T01:19:12.889Z,21.30
2018-09-29T01:21:41.749Z,21.30
2018-09-29T01:24:08.829Z,21.40
2018-09-29T01:26:35.897Z,21.40
2018-09-29T01:29:03.005Z,21.40
2018-09-29T01:31:30.085Z,21.40
2018-09-29T01:33:57.157Z,21.40
2018-09-29T01:36:24.541Z,21.40
2018-09-29T01:38:51.606Z,21.40
2018-09-29T01:41:18.697Z,21.40
2018-09-29T01:43:46.113Z,21.40
2018-09-29T01:46:13.189Z,21.40
2018-09-29T01:48:40.253Z,21.40
2018-09-29T01:51:07.345Z,21.40
2018-09-29T01:53:34.437Z,21.40
2018-09-29T01:56:01.519Z,21.40
2018-09-29T01:58:28.837Z,21.40
2018-09-29T02:00:55.901Z,21.30
2018-09-29T02:03:22.996Z,21.30
2018-09-29T02:05:50.402Z,21.30
2018-09-29T02:08:17.475Z,21.30
2018-09-29T02:10:44.549Z,21.30
2018-09-29T02:13:11.870Z,21.30
2018-09-29T02:15:38.937Z,21.30
2018-09-29T02:18:06.021Z,21.20
2018-09-29T02:20:33.100Z,21.20
2018-09-29T02:23:00.162Z,21.20
2018-09-29T02:25:27.233Z,21.20
2018-09-29T02:27:54.807Z,21.20
2018-09-29T02:30:21.977Z,21.10
2018-09-29T02:32:49.122Z,21.10
2018-09-29T02:35:16.791Z,21.10
2018-09-29T02:37:43.879Z,21.10
2018-09-29T02:40:10.953Z,21.00
2018-09-29T02:42:38.873Z,21.00
2018-09-29T02:45:06.453Z,21.00
2018-09-29T02:47:33.554Z,21.00
2018-09-29T02:50:00.633Z,21.00
2018-09-29T02:52:27.705Z,21.00
2018-09-29T02:54:54.791Z,21.00
2018-09-29T02:57:21.882Z,21.00
2018-09-29T02:59:48.979Z,20.90
2018-09-29T03:02:16.053Z,20.90
2018-09-29T03:04:43.477Z,20.90
2018-09-29T03:07:10.601Z,20.90
2018-09-29T03:09:37.622Z,20.90
2018-09-29T03:12:04.705Z,20.80
2018-09-29T03:14:31.777Z,20.80
2018-09-29T03:16:58.868Z,20.80
2018-09-29T03:19:26.401Z,20.80
2018-09-29T03:21:53.521Z,20.80
2018-09-29T03:24:20.581Z,20.80
2018-09-29T03:26:47.682Z,20.80
2018-09-29T03:29:14.761Z,20.80
2018-09-29T03:31:41.996Z,20.80
2018-09-29T03:34:09.393Z,20.80
2018-09-29T03:36:36.494Z,20.80
2018-09-29T03:39:05.997Z,20.80
2018-09-29T03:41:33.265Z,20.70
2018-09-29T03:44:00.345Z,20.70
2018-09-29T03:46:27.422Z,20.70
2018-09-29T03:48:54.828Z,20.70
2018-09-29T03:51:21.907Z,20.70
2018-09-29T03:53:48.977Z,20.70
2018-09-29T03:56:16.060Z,20.70
2018-09-29T03:58:43.317Z,20.70
2018-09-29T04:01:10.443Z,20.70
2018-09-29T04:03:37.633Z,20.70
2018-09-29T04:06:04.761Z,20.70
2018-09-29T04:08:31.830Z,20.60
2018-09-29T04:10:59.224Z,20.60
2018-09-29T04:13:26.329Z,20.60
2018-09-29T04:15:53.440Z,20.60
2018-09-29T04:18:20.530Z,20.60
2018-09-29T04:20:47.605Z,20.60
2018-09-29T04:23:14.669Z,20.60
2018-09-29T04:25:41.744Z,20.60
2018-09-29T04:28:08.829Z,20.60
2018-09-29T04:30:35.901Z,20.60
2018-09-29T04:33:02.985Z,20.50
2018-09-29T04:35:30.066Z,20.60
2018-09-29T04:37:57.145Z,20.50
2018-09-29T04:40:24.518Z,20.60
2018-09-29T04:42:51.609Z,20.50
2018-09-29T04:45:18.719Z,20.50
2018-09-29T04:47:45.814Z,20.50
2018-09-29T04:50:12.897Z,20.50
2018-09-29T04:52:39.983Z,20.50
2018-09-29T04:55:07.070Z,20.50
2018-09-29T04:57:34.137Z,20.50
2018-09-29T05:00:01.217Z,20.50
2018-09-29T05:02:28.575Z,20.50
2018-09-29T05:04:55.689Z,20.50
2018-09-29T05:07:22.765Z,20.50
2018-09-29T05:09:49.849Z,20.50
2018-09-29T05:12:16.938Z,20.50
2018-09-29T05:14:44.033Z,20.50
2018-09-29T05:17:11.161Z,20.50
2018-09-29T05:19:38.229Z,20.50
2018-09-29T05:22:05.364Z,20.40
2018-09-29T05:24:32.445Z,20.40
2018-09-29T05:26:59.529Z,20.40
2018-09-29T05:29:26.621Z,20.40
2018-09-29T05:31:53.725Z,20.40
2018-09-29T05:34:20.810Z,20.40
2018-09-29T05:36:47.873Z,20.40
2018-09-29T05:39:14.977Z,20.40
2018-09-29T05:41:42.066Z,20.40
2018-09-29T05:44:09.136Z,20.40
2018-09-29T05:46:36.205Z,20.40
2018-09-29T05:49:03.305Z,20.40
2018-09-29T05:51:30.383Z,20.40
2018-09-29T05:53:57.548Z,20.30
2018-09-29T05:56:24.589Z,20.40
2018-09-29T05:58:51.663Z,20.40
2018-09-29T06:01:18.782Z,20.40
2018-09-29T06:03:45.881Z,20.30
2018-09-29T06:06:12.960Z,20.30
2018-09-29T06:08:40.038Z,20.40
2018-09-29T06:11:07.131Z,20.40
2018-09-29T06:13:34.213Z,20.30
2018-09-29T06:16:01.305Z,20.40
2018-09-29T06:18:28.401Z,20.30
2018-09-29T06:20:55.514Z,20.30
2018-09-29T06:23:22.590Z,20.30
2018-09-29T06:25:49.673Z,20.30
2018-09-29T06:28:16.793Z,20.30
2018-09-29T06:30:43.868Z,20.30
2018-09-29T06:33:11.041Z,20.30
2018-09-29T06:35:38.117Z,20.30
2018-09-29T06:38:05.208Z,20.30
2018-09-29T06:40:32.281Z,20.30
2018-09-29T06:42:59.377Z,20.30
2018-09-29T06:45:26.490Z,20.30
2018-09-29T06:47:53.589Z,20.40
2018-09-29T06:50:20.678Z,20.40
2018-09-29T06:52:47.770Z,20.30
2018-09-29T06:55:14.871Z,20.30
2018-09-29T06:57:41.942Z,20.30
2018-09-29T07:00:09.014Z,20.40
2018-09-29T07:02:36.102Z,20.30
2018-09-29T07:05:03.348Z,20.30
2018-09-29T07:07:30.428Z,20.30
2018-09-29T07:09:57.535Z,20.30
2018-09-29T07:12:24.620Z,20.30
2018-09-29T07:14:51.680Z,20.30
2018-09-29T07:17:18.773Z,20.30
2018-09-29T07:19:45.846Z,20.30
2018-09-29T07:22:12.921Z,20.30
2018-09-29T07:24:39.986Z,20.30
2018-09-29T07:27:07.057Z,20.30
2018-09-29T07:29:34.165Z,20.30
2018-09-29T07:32:01.238Z,20.30
2018-09-29T07:34:28.313Z,20.30
2018-09-29T07:36:55.406Z,20.30
2018-09-29T07:39:22.481Z,20.30
2018-09-29T07:41:49.549Z,20.30
2018-09-29T07:44:16.631Z,20.30
2018-09-29T07:46:43.714Z,20.30
2018-09-29T07:49:10.799Z,20.30
2018-09-29T07:51:37.878Z,20.30
2018-09-29T07:54:04.961Z,20.30
2018-09-29T07:56:32.040Z,20.30
2018-09-29T07:58:59.177Z,20.30
2018-09-29T08:01:26.248Z,20.30
2018-09-29T08:03:53.313Z,20.40
2018-09-29T08:06:20.416Z,20.40
2018-09-29T08:08:47.485Z,20.40
2018-09-29T08:11:14.570Z,20.40
2018-09-29T08:13:41.673Z,20.40
2018-09-29T08:16:09.137Z,20.40
2018-09-29T08:18:36.242Z,20.50
2018-09-29T08:21:03.309Z,20.50
2018-09-29T08:23:30.377Z,20.50
2018-09-29T08:25:57.465Z,20.50
2018-09-29T08:28:24.554Z,20.50
2018-09-29T08:30:51.618Z,20.50
2018-09-29T08:33:18.703Z,20.50
2018-09-29T08:35:45.887Z,20.60
2018-09-29T08:38:12.966Z,20.60
2018-09-29T08:40:40.037Z,20.60
2018-09-29T08:43:07.193Z,20.70
2018-09-29T08:45:34.276Z,20.70
2018-09-29T08:48:01.389Z,20.70
2018-09-29T08:50:28.517Z,20.80
2018-09-29T08:52:55.597Z,20.80
2018-09-29T08:55:22.690Z,20.80
2018-09-29T08:57:49.764Z,20.80
2018-09-29T09:00:16.837Z,20.80
2018-09-29T09:02:43.925Z,20.90
2018-09-29T09:05:11.001Z,20.90
2018-09-29T09:07:38.085Z,20.90
2018-09-29T09:10:05.296Z,20.90
2018-09-29T09:12:32.454Z,20.90
2018-09-29T09:14:59.549Z,21.00
2018-09-29T09:17:26.665Z,21.00
2018-09-29T09:19:53.746Z,21.00
2018-09-29T09:22:20.825Z,21.00
2018-09-29T09:24:47.913Z,21.00
2018-09-29T09:27:15.012Z,21.00
2018-09-29T09:29:42.108Z,21.00
2018-09-29T09:32:09.194Z,21.10
2018-09-29T09:34:36.307Z,21.10
2018-09-29T09:37:03.394Z,21.10
2018-09-29T09:39:30.471Z,21.10
2018-09-29T09:41:57.594Z,21.10
2018-09-29T09:44:24.732Z,21.20
2018-09-29T09:46:51.818Z,21.20
2018-09-29T09:49:18.907Z,21.30
2018-09-29T09:51:46.049Z,21.30
2018-09-29T09:54:13.341Z,21.30
2018-09-29T09:56:40.802Z,21.30
2018-09-29T09:59:07.885Z,21.30
2018-09-29T10:01:39.581Z,21.30
2018-09-29T10:04:06.884Z,21.40
2018-09-29T10:06:33.926Z,21.40
2018-09-29T10:09:01.057Z,21.40
2018-09-29T10:11:28.163Z,21.50
2018-09-29T10:13:55.233Z,21.50
2018-09-29T10:16:22.325Z,21.50
2018-09-29T10:18:49.397Z,21.60
2018-09-29T10:21:16.479Z,21.60
2018-09-29T10:23:43.572Z,21.60
2018-09-29T10:26:10.662Z,21.60
2018-09-29T10:28:37.887Z,21.70
2018-09-29T10:31:05.007Z,21.70
2018-09-29T10:33:32.105Z,21.70
2018-09-29T10:35:59.197Z,21.80
2018-09-29T10:38:26.278Z,21.80
2018-09-29T10:40:53.369Z,21.80
2018-09-29T10:43:20.473Z,21.80
2018-09-29T10:45:47.693Z,21.80
2018-09-29T10:48:14.774Z,21.90
2018-09-29T10:50:41.853Z,21.90
2018-09-29T10:53:08.957Z,21.90
2018-09-29T10:55:36.037Z,21.90
2018-09-29T10:58:03.113Z,22.00
2018-09-29T11:00:30.193Z,22.00
2018-09-29T11:02:57.266Z,22.10
2018-09-29T11:05:24.353Z,22.10
2018-09-29T11:07:51.421Z,22.10
2018-09-29T11:10:18.514Z,22.10
2018-09-29T11:12:45.597Z,22.10
2018-09-29T11:15:12.686Z,22.10
2018-09-29T11:17:39.776Z,22.10
2018-09-29T11:20:06.953Z,22.20
2018-09-29T11:22:34.044Z,22.20
2018-09-29T11:25:01.123Z,22.20
2018-09-29T11:27:28.218Z,22.20
2018-09-29T11:29:55.308Z,22.30
2018-09-29T11:32:22.399Z,22.30
2018-09-29T11:34:49.523Z,22.30
2018-09-29T11:37:16.629Z,22.30
2018-09-29T11:39:43.709Z,22.40
2018-09-29T11:42:10.788Z,22.40
2018-09-29T11:44:37.908Z,22.40
2018-09-29T11:47:04.969Z,22.50
2018-09-29T11:49:32.049Z,22.50
2018-09-29T11:51:59.141Z,22.50
2018-09-29T11:54:26.290Z,22.50
2018-09-29T11:56:53.362Z,22.60
2018-09-29T11:59:20.453Z,22.60
2018-09-29T12:01:47.565Z,22.60
2018-09-29T12:04:14.625Z,22.70
2018-09-29T12:06:41.689Z,22.70
2018-09-29T12:09:10.331Z,22.70
2018-09-29T12:11:37.709Z,22.70
2018-09-29T12:14:04.956Z,22.70
2018-09-29T12:16:32.033Z,22.80
2018-09-29T12:18:59.253Z,22.80
2018-09-29T12:21:26.430Z,22.80
2018-09-29T12:23:53.499Z,22.80
2018-09-29T12:26:20.585Z,22.90
2018-09-29T12:28:47.681Z,22.90
2018-09-29T12:31:14.757Z,22.90
2018-09-29T12:33:41.834Z,22.90
2018-09-29T12:36:08.905Z,23.00
2018-09-29T12:38:35.999Z,23.00
2018-09-29T12:41:03.085Z,23.00
2018-09-29T12:43:30.163Z,23.00
2018-09-29T12:45:57.238Z,23.00
2018-09-29T12:48:24.317Z,23.00
2018-09-29T12:50:51.421Z,23.10
2018-09-29T12:53:18.501Z,23.10
2018-09-29T12:55:45.565Z,23.10
2018-09-29T12:58:12.682Z,23.10
2018-09-29T13:00:39.762Z,23.10
2018-09-29T13:03:06.875Z,23.10
2018-09-29T13:05:33.962Z,23.10
2018-09-29T13:08:01.077Z,23.10
2018-09-29T13:10:28.160Z,23.10
2018-09-29T13:12:55.227Z,23.10
2018-09-29T13:15:22.321Z,23.20
2018-09-29T13:17:49.425Z,23.20
2018-09-29T13:20:16.519Z,23.20
2018-09-29T13:22:43.616Z,23.20
2018-09-29T13:25:10.694Z,23.20
2018-09-29T13:27:37.782Z,23.20
2018-09-29T13:30:04.872Z,23.30
2018-09-29T13:32:31.939Z,23.30
2018-09-29T13:34:59.009Z,23.30
2018-09-29T13:37:26.201Z,23.30
2018-09-29T13:39:53.286Z,23.30
2018-09-29T13:42:20.368Z,23.30
2018-09-29T13:44:47.431Z,23.30
2018-09-29T13:47:18.641Z,23.30
2018-09-29T13:49:45.714Z,23.30
2018-09-29T13:52:12.793Z,23.30
2018-09-29T13:54:39.873Z,23.30
2018-09-29T13:57:06.941Z,23.30
2018-09-29T13:59:34.018Z,23.30
2018-09-29T14:02:01.109Z,23.40
2018-09-29T14:04:28.184Z,23.40
2018-09-29T14:06:55.259Z,23.40
2018-09-29T14:09:22.598Z,23.40
2018-09-29T14:11:49.676Z,23.40
2018-09-29T14:14:16.769Z,23.40
2018-09-29T14:16:43.845Z,23.40
2018-09-29T14:19:10.970Z,23.40
2018-09-29T14:21:38.043Z,23.40
2018-09-29T14:24:05.279Z,23.40
2018-09-29T14:26:32.365Z,23.40
2018-09-29T14:28:59.489Z,23.40
2018-09-29T14:31:26.686Z,23.40
2018-09-29T14:33:53.813Z,23.40
2018-09-29T14:36:20.885Z,23.40
2018-09-29T14:38:48.150Z,23.40
2018-09-29T14:41:15.273Z,23.40
2018-09-29T14:43:42.369Z,23.40
2018-09-29T14:46:09.437Z,23.40
2018-09-29T14:48:36.525Z,23.40
2018-09-29T14:51:03.599Z,23.40
2018-09-29T14:53:30.673Z,23.40
2018-09-29T14:55:57.752Z,23.40
2018-09-29T14:58:24.822Z,23.40
2018-09-29T15:00:51.915Z,23.40
2018-09-29T15:03:18.993Z,23.40
2018-09-29T15:05:46.073Z,23.40
2018-09-29T15:08:13.174Z,23.40
2018-09-29T15:10:40.258Z,23.40
2018-09-29T15:13:07.326Z,23.40
2018-09-29T15:15:34.411Z,23.40
2018-09-29T15:18:01.486Z,23.40
2018-09-29T15:20:28.609Z,23.40
2018-09-29T15:22:56.682Z,23.30
2018-09-29T15:25:23.773Z,23.30
2018-09-29T15:27:50.849Z,23.30
2018-09-29T15:30:17.930Z,23.30
2018-09-29T15:32:45.001Z,23.30
2018-09-29T15:35:12.082Z,23.30
2018-09-29T15:37:39.409Z,23.30
2018-09-29T15:40:06.490Z,23.30
2018-09-29T15:42:33.631Z,23.30
2018-09-29T15:45:00.738Z,23.20
2018-09-29T15:47:27.745Z,23.20
2018-09-29T15:49:54.817Z,23.20
2018-09-29T15:52:21.900Z,23.20
2018-09-29T15:54:48.977Z,23.20
2018-09-29T15:57:16.053Z,23.20
2018-09-29T15:59:43.163Z,23.20
2018-09-29T16:02:10.271Z,23.20
2018-09-29T16:04:37.342Z,23.20
2018-09-29T16:07:04.451Z,23.20
2018-09-29T16:09:31.531Z,23.20
2018-09-29T16:11:58.613Z,23.20
2018-09-29T16:14:25.674Z,23.20
2018-09-29T16:16:52.882Z,23.20
2018-09-29T16:19:19.965Z,23.20
2018-09-29T16:21:47.123Z,23.20
2018-09-29T16:24:14.145Z,23.20
2018-09-29T16:26:41.213Z,23.10
2018-09-29T16:29:08.281Z,23.10
2018-09-29T16:31:35.362Z,23.10
2018-09-29T16:34:02.437Z,23.10
2018-09-29T16:36:29.523Z,23.10
2018-09-29T16:38:56.622Z,23.10
2018-09-29T16:41:23.717Z,23.10
2018-09-29T16:43:50.793Z,23.10
2018-09-29T16:46:17.869Z,23.10
2018-09-29T16:48:45.042Z,23.10
2018-09-29T16:51:12.142Z,23.00
2018-09-29T16:53:39.265Z,23.00
2018-09-29T16:56:06.765Z,23.00
2018-09-29T16:58:33.855Z,23.00
2018-09-29T17:01:00.953Z,23.00
2018-09-29T17:03:28.078Z,23.00
2018-09-29T17:05:55.165Z,23.00
2018-09-29T17:08:22.244Z,23.00
2018-09-29T17:10:49.313Z,22.90
2018-09-29T17:13:16.382Z,22.90
2018-09-29T17:15:43.537Z,22.90
2018-09-29T17:18:10.649Z,22.90
2018-09-29T17:20:37.757Z,22.90
2018-09-29T17:23:05.264Z,22.90
2018-09-29T17:25:32.338Z,22.80
2018-09-29T17:27:59.406Z,22.80
2018-09-29T17:30:26.517Z,22.80
2018-09-29T17:32:53.589Z,22.70
2018-09-29T17:35:20.665Z,22.70
2018-09-29T17:37:47.757Z,22.70
2018-09-29T17:40:14.838Z,22.70
2018-09-29T17:42:41.928Z,22.70
2018-09-29T17:45:09.022Z,22.60
2018-09-29T17:47:36.106Z,22.60
2018-09-29T17:50:03.565Z,22.60
2018-09-29T17:52:30.691Z,22.50
2018-09-29T17:54:57.798Z,22.50
2018-09-29T17:57:24.891Z,22.50
2018-09-29T17:59:51.965Z,22.50
2018-09-29T18:02:19.061Z,22.50
2018-09-29T18:04:46.136Z,22.40
2018-09-29T18:07:13.209Z,22.40
2018-09-29T18:09:40.287Z,22.40
2018-09-29T18:12:07.388Z,22.40
2018-09-29T18:14:34.467Z,22.40
2018-09-29T18:17:01.577Z,22.40
2018-09-29T18:19:28.657Z,22.40
2018-09-29T18:21:55.912Z,22.30
2018-09-29T18:24:22.933Z,22.30
2018-09-29T18:26:50.033Z,22.30
2018-09-29T18:29:17.117Z,22.30
2018-09-29T18:31:44.193Z,22.30
2018-09-29T18:34:11.262Z,22.30
2018-09-29T18:36:38.337Z,22.30
2018-09-29T18:39:07.389Z,22.30
2018-09-29T18:41:34.462Z,22.30
2018-09-29T18:44:01.559Z,22.30
2018-09-29T18:46:28.637Z,22.30
2018-09-29T18:48:55.705Z,22.20
2018-09-29T18:51:22.782Z,22.20
2018-09-29T18:53:49.856Z,22.20
2018-09-29T18:56:16.970Z,22.10
2018-09-29T18:58:44.046Z,22.10
2018-09-29T19:01:11.121Z,22.10
2018-09-29T19:03:38.197Z,22.10
2018-09-29T19:06:05.354Z,22.10
2018-09-29T19:08:32.422Z,22.10
2018-09-29T19:10:59.531Z,22.10
2018-09-29T19:13:26.617Z,22.10
2018-09-29T19:15:53.737Z,22.00
2018-09-29T19:18:20.793Z,22.10
2018-09-29T19:20:47.881Z,22.00
2018-09-29T19:23:15.002Z,22.00
2018-09-29T19:25:42.097Z,22.00
2018-09-29T19:28:09.170Z,22.00
2018-09-29T19:30:36.290Z,22.00
2018-09-29T19:33:03.394Z,22.00
2018-09-29T19:35:30.485Z,22.00
2018-09-29T19:37:57.586Z,22.00
2018-09-29T19:40:24.670Z,22.00
2018-09-29T19:42:51.746Z,22.00
2018-09-29T19:45:18.895Z,22.00
2018-09-29T19:47:45.917Z,22.00
2018-09-29T19:50:13.042Z,22.00
2018-09-29T19:52:40.146Z,21.90
2018-09-29T19:55:07.236Z,21.90
2018-09-29T19:57:34.335Z,21.90
2018-09-29T20:00:01.456Z,22.00
2018-09-29T20:02:28.715Z,21.90
2018-09-29T20:04:55.797Z,21.90
2018-09-29T20:07:23.213Z,21.90
2018-09-29T20:09:50.306Z,21.90
2018-09-29T20:12:17.708Z,21.90
2018-09-29T20:14:44.793Z,21.90
2018-09-29T20:17:11.897Z,21.90
2018-09-29T20:19:39.025Z,21.90
2018-09-29T20:22:07.773Z,21.90
2018-09-29T20:24:34.915Z,21.90
2018-09-29T20:27:01.997Z,21.90
2018-09-29T20:29:29.081Z,21.90
2018-09-29T20:31:56.155Z,21.90
2018-09-29T20:34:23.256Z,21.90
2018-09-29T20:36:50.329Z,21.90
2018-09-29T20:39:17.409Z,21.90
2018-09-29T20:41:44.496Z,21.80
2018-09-29T20:44:11.561Z,21.80
2018-09-29T20:46:38.669Z,21.80
2018-09-29T20:49:06.194Z,21.80
2018-09-29T20:51:33.266Z,21.80
2018-09-29T20:54:00.341Z,21.80
2018-09-29T20:56:27.425Z,21.80
2018-09-29T20:58:54.845Z,21.80
2018-09-29T21:01:22.732Z,21.80
2018-09-29T21:03:49.834Z,21.70
2018-09-29T21:06:16.921Z,21.70
2018-09-29T21:08:44.001Z,21.70
2018-09-29T21:11:11.080Z,21.70
2018-09-29T21:13:38.245Z,21.70
2018-09-29T21:16:05.399Z,21.70
2018-09-29T21:18:32.484Z,21.70
2018-09-29T21:20:59.979Z,21.70
2018-09-29T21:23:27.047Z,21.60
2018-09-29T21:25:54.140Z,21.60
2018-09-29T21:28:21.271Z,21.60
2018-09-29T21:30:48.314Z,21.60
2018-09-29T21:33:15.539Z,21.60
2018-09-29T21:35:42.609Z,21.50
2018-09-29T21:38:09.692Z,21.50
2018-09-29T21:40:36.777Z,21.50
2018-09-29T21:43:03.841Z,21.50
2018-09-29T21:45:30.909Z,21.50
2018-09-29T21:47:57.982Z,21.50
2018-09-29T21:50:25.050Z,21.40
2018-09-29T21:52:52.121Z,21.40
2018-09-29T21:55:19.213Z,21.40
2018-09-29T21:57:46.295Z,21.30
2018-09-29T22:00:15.777Z,21.30
2018-09-29T22:02:42.861Z,21.30
2018-09-29T22:05:09.925Z,21.30
2018-09-29T22:07:36.994Z,21.20
2018-09-29T22:10:04.077Z,21.20
2018-09-29T22:12:31.149Z,21.20
2018-09-29T22:14:58.225Z,21.20
2018-09-29T22:17:25.334Z,21.20
2018-09-29T22:19:52.409Z,21.10
2018-09-29T22:22:19.477Z,21.10
2018-09-29T22:24:46.561Z,21.10
2018-09-29T22:27:13.634Z,21.10
2018-09-29T22:29:40.701Z,21.10
2018-09-29T22:32:07.783Z,21.00
2018-09-29T22:34:34.862Z,21.00
2018-09-29T22:37:01.941Z,21.00
2018-09-29T22:39:29.025Z,21.00
2018-09-29T22:41:56.098Z,21.00
2018-09-29T22:44:23.173Z,21.00
2018-09-29T22:46:50.252Z,21.00
2018-09-29T22:49:17.327Z,21.00
2018-09-29T22:51:44.416Z,21.00
2018-09-29T22:54:11.486Z,21.00
2018-09-29T22:56:38.564Z,20.90
2018-09-29T22:59:06.252Z,21.00
2018-09-29T23:01:34.765Z,20.90
2018-09-29T23:04:01.848Z,21.00
2018-09-29T23:06:28.923Z,21.00
2018-09-29T23:08:56.009Z,21.00
2018-09-29T23:11:23.153Z,21.00
2018-09-29T23:13:50.221Z,21.00
2018-09-29T23:16:17.339Z,21.00
2018-09-29T23:18:44.418Z,21.10
2018-09-29T23:21:11.520Z,21.10
2018-09-29T23:23:38.610Z,21.10
2018-09-29T23:26:05.686Z,21.10
2018-09-29T23:28:32.753Z,21.10
2018-09-29T23:31:00.637Z,21.10
2018-09-29T23:33:27.709Z,21.20
2018-09-29T23:35:54.785Z,21.20
2018-09-29T23:38:21.867Z,21.20
2018-09-29T23:40:48.993Z,21.20
2018-09-29T23:43:16.066Z,21.20
2018-09-29T23:45:43.141Z,21.20
2018-09-29T23:48:10.225Z,21.20
2018-09-29T23:50:37.297Z,21.20
2018-09-29T23:53:04.465Z,21.20
2018-09-29T23:55:31.538Z,21.10
2018-09-29T23:57:58.666Z,21.10
